Time;durP1;ratioP1;P1;durP2;ratioP2;P2;SDS_P1;SDS_P2;PMS_P1;PMS_P2;Temp;Humidity;BMP_temperature;BMP_pressure;BME280_temperature;BME280_humidity;BME280_pressure;Samples;Min_cycle;Max_cycle;Signal;HPM_P1;HPM_P2
2023/06/27 00:02:23;;;;;;;4.15;1.90;;;20.30;71.30;;;;;;5059964;28;20029;-75
2023/06/27 00:04:48;;;;;;;4.82;1.63;;;20.30;71.40;;;;;;5053072;28;20021;-75
2023/06/27 00:07:14;;;;;;;4.10;2.03;;;20.30;71.50;;;;;;5052163;28;20021;-75
2023/06/27 00:09:40;;;;;;;7.47;1.80;;;20.20;71.60;;;;;;5048197;28;20102;-76
2023/06/27 00:12:07;;;;;;;6.00;1.73;;;20.20;71.70;;;;;;5060461;28;20444;-76
2023/06/27 00:14:33;;;;;;;4.75;1.40;;;20.10;71.90;;;;;;5060296;28;20052;-75
2023/06/27 00:17:00;;;;;;;4.18;1.35;;;20.10;72.60;;;;;;5048467;28;20064;-76
2023/06/27 00:19:25;;;;;;;5.22;1.55;;;20.10;72.40;;;;;;5062620;28;20028;-76
2023/06/27 00:21:51;;;;;;;4.38;1.70;;;20.10;72.60;;;;;;5060299;28;20100;-76
2023/06/27 00:24:17;;;;;;;11.52;1.90;;;20.00;72.70;;;;;;5054789;28;20623;-76
2023/06/27 00:26:42;;;;;;;3.17;1.50;;;20.00;72.60;;;;;;5054198;28;20029;-75
2023/06/27 00:29:08;;;;;;;4.32;1.75;;;19.90;72.80;;;;;;5054000;28;20025;-75
2023/06/27 00:31:34;;;;;;;7.88;1.83;;;19.90;73.10;;;;;;5054519;28;20155;-75
2023/06/27 00:33:59;;;;;;;6.72;2.30;;;19.90;73.20;;;;;;5055367;28;20395;-75
2023/06/27 00:36:25;;;;;;;4.50;1.70;;;19.90;73.40;;;;;;5056067;28;20017;-75
2023/06/27 00:38:50;;;;;;;6.03;1.90;;;19.80;73.50;;;;;;5059872;28;20027;-76
2023/06/27 00:41:16;;;;;;;3.50;1.38;;;19.80;73.80;;;;;;5054170;28;20024;-75
2023/06/27 00:43:42;;;;;;;4.10;1.58;;;19.70;73.70;;;;;;5050927;28;20057;-75
2023/06/27 00:46:10;;;;;;;3.65;1.55;;;19.70;73.80;;;;;;5054738;28;20415;-75
2023/06/27 00:48:36;;;;;;;3.50;1.48;;;19.70;74.00;;;;;;5053761;28;20078;-75
2023/06/27 00:51:03;;;;;;;4.50;1.77;;;19.70;74.10;;;;;;5049838;28;20025;-75
2023/06/27 00:53:29;;;;;;;4.20;1.30;;;19.60;74.20;;;;;;5056446;28;20109;-75
2023/06/27 00:55:55;;;;;;;3.22;1.52;;;19.60;74.30;;;;;;5054084;28;20491;-75
2023/06/27 00:58:21;;;;;;;6.45;1.92;;;19.60;74.50;;;;;;5050954;28;20051;-75
2023/06/27 01:00:50;;;;;;;4.72;1.67;;;19.60;74.50;;;;;;5056754;28;20032;-75
2023/06/27 01:03:16;;;;;;;3.90;1.35;;;19.50;74.50;;;;;;5056168;28;20134;-75
2023/06/27 01:05:42;;;;;;;4.18;1.30;;;19.60;74.60;;;;;;5056054;28;20682;-75
2023/06/27 01:08:17;;;;;;;4.00;1.70;;;19.50;74.70;;;;;;5053296;28;20094;-76
2023/06/27 01:11:22;;;;;;;5.40;1.77;;;19.50;74.60;;;;;;5058027;28;20032;-76
2023/06/27 01:13:55;;;;;;;3.60;1.42;;;19.50;74.60;;;;;;5047478;28;20026;-76
2023/06/27 01:16:27;;;;;;;4.80;1.70;;;19.50;74.80;;;;;;5055809;28;20438;-77
2023/06/27 01:18:55;;;;;;;4.38;1.60;;;19.50;74.80;;;;;;5053507;28;20499;-77
2023/06/27 01:21:24;;;;;;;4.18;1.58;;;19.50;74.80;;;;;;5052031;28;20634;-77
2023/06/27 01:23:55;;;;;;;5.53;2.10;;;19.40;74.80;;;;;;5050619;28;20562;-76
2023/06/27 01:26:22;;;;;;;3.58;1.65;;;19.40;75.00;;;;;;5056963;28;20475;-76
2023/06/27 01:28:48;;;;;;;5.30;1.67;;;19.30;75.10;;;;;;5068038;28;20032;-74
2023/06/27 01:31:26;;;;;;;6.90;1.80;;;19.30;75.30;;;;;;5066451;28;20017;-75
2023/06/27 01:33:59;;;;;;;3.35;1.50;;;19.30;75.40;;;;;;5055665;28;20114;-75
2023/06/27 01:36:40;;;;;;;6.70;2.03;;;19.30;75.30;;;;;;5058754;28;20499;-76
2023/06/27 01:39:15;;;;;;;4.88;1.15;;;19.30;75.30;;;;;;5052809;28;20909;-76
2023/06/27 01:41:47;;;;;;;3.40;1.50;;;19.30;75.40;;;;;;5050749;28;20021;-76
2023/06/27 01:44:14;;;;;;;3.00;1.50;;;19.20;75.50;;;;;;5065304;28;20024;-77
2023/06/27 01:46:41;;;;;;;5.22;1.33;;;19.30;75.60;;;;;;5056392;28;20078;-77
2023/06/27 01:49:08;;;;;;;4.80;1.60;;;19.30;75.60;;;;;;5055602;28;20036;-76
2023/06/27 01:51:34;;;;;;;3.55;1.50;;;19.20;75.50;;;;;;5053676;28;20020;-77
2023/06/27 01:53:59;;;;;;;3.75;1.55;;;19.20;75.60;;;;;;5058892;28;20025;-77
2023/06/27 01:56:25;;;;;;;4.70;1.50;;;19.20;75.90;;;;;;5053105;28;20086;-76
2023/06/27 01:58:51;;;;;;;8.27;1.42;;;19.20;76.20;;;;;;5054521;28;20104;-77
2023/06/27 02:01:17;;;;;;;7.75;2.30;;;19.10;76.20;;;;;;5049898;28;20106;-76
2023/06/27 02:03:43;;;;;;;4.43;1.30;;;19.20;76.40;;;;;;5053134;28;20013;-75
2023/06/27 02:06:09;;;;;;;4.28;1.58;;;19.20;76.50;;;;;;5057310;28;20595;-76
2023/06/27 02:08:34;;;;;;;6.72;1.60;;;19.10;76.50;;;;;;5059480;28;20557;-75
2023/06/27 02:11:00;;;;;;;5.63;1.75;;;19.20;76.60;;;;;;5055660;28;20021;-75
2023/06/27 02:13:26;;;;;;;5.00;1.70;;;19.10;76.60;;;;;;5058503;28;20471;-75
2023/06/27 02:15:51;;;;;;;4.97;1.50;;;19.10;76.70;;;;;;5050856;28;20025;-75
2023/06/27 02:18:17;;;;;;;4.65;1.50;;;19.10;77.00;;;;;;5051871;28;20094;-76
2023/06/27 02:20:42;;;;;;;3.60;1.55;;;19.10;77.00;;;;;;5053027;28;20017;-75
2023/06/27 02:23:08;;;;;;;5.38;1.60;;;19.10;77.00;;;;;;5056958;28;20693;-75
2023/06/27 02:25:33;;;;;;;6.38;1.50;;;19.10;77.10;;;;;;5055277;28;20048;-75
2023/06/27 02:27:59;;;;;;;5.15;1.58;;;19.10;77.10;;;;;;5052253;28;20075;-75
2023/06/27 02:30:24;;;;;;;5.88;1.60;;;19.10;77.40;;;;;;5052279;28;20392;-75
2023/06/27 02:32:50;;;;;;;4.45;1.33;;;19.10;77.10;;;;;;5052236;28;20037;-75
2023/06/27 02:35:16;;;;;;;3.70;1.35;;;19.10;77.10;;;;;;5051123;28;20029;-76
2023/06/27 02:37:42;;;;;;;6.00;1.80;;;19.10;77.10;;;;;;5051387;28;20031;-75
2023/06/27 02:40:08;;;;;;;4.22;1.60;;;19.10;77.00;;;;;;5052908;28;20018;-75
2023/06/27 02:42:34;;;;;;;9.43;2.08;;;19.00;77.10;;;;;;5051802;28;20021;-76
2023/06/27 02:45:00;;;;;;;4.22;1.33;;;19.00;77.30;;;;;;5062635;28;20032;-77
2023/06/27 02:47:25;;;;;;;3.90;1.85;;;19.00;77.30;;;;;;5051966;28;20507;-76
2023/06/27 02:49:51;;;;;;;5.20;1.90;;;19.00;77.40;;;;;;5052166;28;20059;-77
2023/06/27 02:52:16;;;;;;;4.85;1.30;;;19.00;77.70;;;;;;5056575;28;20029;-77
2023/06/27 02:54:42;;;;;;;4.43;1.55;;;19.00;77.70;;;;;;5052454;28;20103;-76
2023/06/27 02:57:07;;;;;;;4.00;1.95;;;19.00;78.00;;;;;;5067621;28;20074;-76
2023/06/27 02:59:33;;;;;;;4.55;1.80;;;19.00;78.30;;;;;;5059531;28;20120;-75
2023/06/27 03:01:59;;;;;;;4.78;1.88;;;18.90;78.40;;;;;;5061008;28;21201;-75
2023/06/27 03:04:24;;;;;;;4.22;1.48;;;18.90;78.60;;;;;;5055965;28;20045;-75
2023/06/27 03:06:50;;;;;;;5.72;1.80;;;18.90;78.80;;;;;;5055652;28;20075;-75
2023/06/27 03:09:18;;;;;;;2.83;1.40;;;18.90;78.80;;;;;;5059474;28;20106;-76
2023/06/27 03:11:43;;;;;;;6.82;2.10;;;18.80;79.00;;;;;;5055749;28;20024;-76
2023/06/27 03:14:09;;;;;;;4.93;1.33;;;18.80;79.10;;;;;;5059016;28;20044;-76
2023/06/27 03:16:34;;;;;;;5.70;1.60;;;18.80;79.30;;;;;;5053947;28;20025;-76
2023/06/27 03:19:00;;;;;;;5.32;1.60;;;18.80;79.50;;;;;;5051448;28;20032;-77
2023/06/27 03:21:26;;;;;;;3.40;1.85;;;18.80;79.40;;;;;;5059662;28;20719;-76
2023/06/27 03:23:51;;;;;;;4.50;1.50;;;18.80;79.40;;;;;;5054402;28;20025;-76
2023/06/27 03:26:17;;;;;;;2.72;1.60;;;18.80;79.50;;;;;;5055159;28;20021;-75
2023/06/27 03:28:42;;;;;;;4.97;1.98;;;18.80;79.40;;;;;;5054164;28;20068;-76
2023/06/27 03:31:08;;;;;;;5.63;2.35;;;18.80;79.40;;;;;;5055240;28;20384;-76
2023/06/27 03:33:33;;;;;;;5.25;1.95;;;18.80;79.20;;;;;;5060570;28;20017;-76
2023/06/27 03:35:59;;;;;;;4.65;1.45;;;18.80;79.00;;;;;;5060046;28;20060;-76
2023/06/27 03:38:25;;;;;;;4.28;1.73;;;18.80;79.00;;;;;;5050753;28;20033;-76
2023/06/27 03:40:50;;;;;;;4.82;1.70;;;18.80;79.00;;;;;;5069847;28;20033;-76
2023/06/27 03:43:16;;;;;;;5.15;1.70;;;18.70;79.20;;;;;;5057485;28;20021;-76
2023/06/27 03:45:42;;;;;;;6.50;2.17;;;18.70;79.50;;;;;;5055512;28;20021;-76
2023/06/27 03:48:08;;;;;;;4.32;1.70;;;18.80;79.90;;;;;;5058658;28;20533;-76
2023/06/27 03:50:34;;;;;;;4.20;1.85;;;18.80;80.20;;;;;;5059866;28;20485;-77
2023/06/27 03:53:03;;;;;;;5.97;1.63;;;18.80;80.30;;;;;;5058888;28;20116;-76
2023/06/27 03:55:28;;;;;;;2.95;1.55;;;18.80;80.40;;;;;;5062354;28;20407;-76
2023/06/27 03:57:54;;;;;;;4.75;2.25;;;18.70;80.50;;;;;;5052776;28;20028;-76
2023/06/27 04:00:19;;;;;;;4.70;1.50;;;18.70;80.70;;;;;;5054057;28;20079;-77
2023/06/27 04:02:45;;;;;;;4.47;1.98;;;18.70;81.50;;;;;;5053858;28;20074;-77
2023/06/27 04:05:11;;;;;;;5.82;1.83;;;18.70;80.90;;;;;;5054747;28;20036;-76
2023/06/27 04:07:36;;;;;;;8.02;2.67;;;18.70;80.90;;;;;;5054394;28;20464;-77
2023/06/27 04:10:02;;;;;;;5.97;2.28;;;18.80;81.10;;;;;;5054659;28;20024;-76
2023/06/27 04:12:28;;;;;;;4.45;1.80;;;18.70;81.10;;;;;;5054838;28;20043;-76
2023/06/27 04:14:53;;;;;;;5.72;1.60;;;18.70;81.00;;;;;;5056584;28;20479;-76
2023/06/27 04:17:19;;;;;;;6.03;1.58;;;18.70;81.20;;;;;;5053428;28;20019;-76
2023/06/27 04:19:44;;;;;;;5.22;1.83;;;18.70;81.10;;;;;;5054795;28;20059;-76
2023/06/27 04:22:10;;;;;;;4.85;2.08;;;18.70;80.80;;;;;;5052525;28;20540;-77
2023/06/27 04:24:36;;;;;;;4.75;2.00;;;18.70;81.00;;;;;;5054240;28;20043;-77
2023/06/27 04:27:01;;;;;;;5.72;1.98;;;18.70;80.80;;;;;;5051921;28;20116;-77
2023/06/27 04:29:27;;;;;;;4.05;1.42;;;18.70;80.90;;;;;;5053783;28;20593;-76
2023/06/27 04:31:52;;;;;;;4.93;1.90;;;18.70;81.20;;;;;;5051872;28;20056;-77
2023/06/27 04:34:18;;;;;;;4.90;1.75;;;18.70;81.30;;;;;;5053992;28;20025;-76
2023/06/27 04:36:44;;;;;;;5.15;2.35;;;18.70;81.40;;;;;;5052642;28;20096;-77
2023/06/27 04:39:09;;;;;;;4.43;1.85;;;18.70;81.40;;;;;;5053321;28;20606;-76
2023/06/27 04:41:35;;;;;;;5.72;1.80;;;18.70;81.50;;;;;;5059129;28;20077;-77
2023/06/27 04:44:01;;;;;;;3.95;1.80;;;18.80;81.50;;;;;;5057693;28;20046;-77
2023/06/27 04:46:28;;;;;;;4.38;2.08;;;18.80;81.40;;;;;;5058072;28;20028;-76
2023/06/27 04:48:58;;;;;;;5.03;2.28;;;18.70;81.60;;;;;;5053622;28;20487;-76
2023/06/27 04:51:30;;;;;;;4.72;1.92;;;18.70;81.80;;;;;;5045466;28;20029;-76
2023/06/27 04:53:55;;;;;;;5.32;2.00;;;18.80;81.90;;;;;;5050342;28;20096;-76
2023/06/27 04:56:22;;;;;;;6.28;2.58;;;18.70;81.90;;;;;;5051784;28;20055;-69
2023/06/27 04:58:48;;;;;;;7.53;2.15;;;18.80;81.80;;;;;;5051056;28;20036;-69
2023/06/27 05:01:14;;;;;;;7.57;2.60;;;18.80;81.90;;;;;;5051870;28;20029;-69
2023/06/27 05:03:41;;;;;;;7.00;2.42;;;18.80;81.90;;;;;;5052123;28;20435;-69
2023/06/27 05:06:07;;;;;;;6.60;2.20;;;18.80;81.90;;;;;;5052693;28;20028;-68
2023/06/27 05:08:35;;;;;;;5.07;1.85;;;18.90;81.80;;;;;;5052259;28;20029;-69
2023/06/27 05:11:01;;;;;;;5.43;1.90;;;18.90;81.30;;;;;;5052406;28;20442;-78
2023/06/27 05:13:27;;;;;;;3.90;1.98;;;18.90;80.40;;;;;;5048146;28;20021;-77
2023/06/27 05:15:52;;;;;;;4.38;1.92;;;19.00;80.00;;;;;;5059709;28;20039;-76
2023/06/27 05:18:18;;;;;;;3.53;1.75;;;19.00;79.60;;;;;;5060549;28;20483;-77
2023/06/27 05:20:45;;;;;;;5.85;1.98;;;19.00;79.10;;;;;;5052339;28;20103;-77
2023/06/27 05:23:11;;;;;;;7.28;2.47;;;19.10;79.20;;;;;;5059349;28;20020;-77
2023/06/27 05:25:37;;;;;;;7.10;1.75;;;19.00;79.30;;;;;;5056418;28;20029;-76
2023/06/27 05:28:03;;;;;;;5.85;1.75;;;19.00;79.10;;;;;;5054026;28;20389;-76
2023/06/27 05:30:29;;;;;;;3.45;2.10;;;19.10;79.30;;;;;;5055094;28;20056;-77
2023/06/27 05:32:56;;;;;;;4.13;1.45;;;19.10;79.00;;;;;;5048473;28;20044;-70
2023/06/27 05:35:22;;;;;;;5.85;1.67;;;19.10;79.00;;;;;;5044455;28;20025;-70
2023/06/27 05:37:48;;;;;;;5.30;2.05;;;19.10;79.10;;;;;;5051063;28;20709;-69
2023/06/27 05:40:14;;;;;;;6.70;2.05;;;19.10;79.10;;;;;;5050829;28;20025;-70
2023/06/27 05:42:40;;;;;;;3.33;1.80;;;19.20;79.30;;;;;;5051742;28;20017;-70
2023/06/27 05:45:06;;;;;;;6.60;2.22;;;19.20;79.40;;;;;;5051623;28;20029;-69
2023/06/27 05:47:32;;;;;;;6.30;2.30;;;19.30;79.50;;;;;;5051556;28;20021;-69
2023/06/27 05:49:57;;;;;;;5.28;1.90;;;19.20;79.20;;;;;;5056799;28;20032;-77
2023/06/27 05:52:23;;;;;;;10.18;2.35;;;19.30;79.60;;;;;;5060919;28;20375;-76
2023/06/27 05:54:50;;;;;;;4.47;1.90;;;19.30;79.60;;;;;;5055131;28;20025;-76
2023/06/27 05:57:16;;;;;;;4.88;2.28;;;19.30;79.30;;;;;;5054071;28;20121;-76
2023/06/27 05:59:42;;;;;;;4.53;2.10;;;19.30;79.30;;;;;;5053891;28;20033;-75
2023/06/27 06:02:07;;;;;;;5.72;2.35;;;19.30;79.40;;;;;;5053179;28;20021;-77
2023/06/27 06:04:33;;;;;;;8.13;2.20;;;19.30;79.50;;;;;;5054363;28;20020;-76
2023/06/27 06:06:58;;;;;;;4.25;2.13;;;19.30;79.60;;;;;;5053639;28;20538;-77
2023/06/27 06:09:25;;;;;;;5.38;1.90;;;19.30;79.60;;;;;;5050143;28;20021;-76
2023/06/27 06:11:51;;;;;;;5.30;2.08;;;19.40;79.90;;;;;;5045110;28;20035;-76
2023/06/27 06:14:16;;;;;;;5.45;2.05;;;19.50;79.70;;;;;;5055691;28;20115;-76
2023/06/27 06:16:42;;;;;;;4.20;1.88;;;19.50;79.50;;;;;;5058176;28;20072;-77
2023/06/27 06:19:08;;;;;;;5.55;2.28;;;19.60;79.10;;;;;;5050221;28;20036;-77
2023/06/27 06:21:34;;;;;;;7.10;1.63;;;19.60;78.80;;;;;;5051967;28;20017;-75
2023/06/27 06:24:00;;;;;;;7.90;2.00;;;19.70;78.50;;;;;;5052135;28;20020;-75
2023/06/27 06:26:25;;;;;;;4.32;1.80;;;19.70;78.60;;;;;;5054778;28;20436;-74
2023/06/27 06:28:51;;;;;;;9.73;2.47;;;19.80;78.40;;;;;;5053509;28;20029;-74
2023/06/27 06:31:18;;;;;;;6.72;2.05;;;19.90;78.40;;;;;;5054642;28;20570;-74
2023/06/27 06:33:44;;;;;;;5.30;1.75;;;19.90;78.50;;;;;;5052031;28;20020;-75
2023/06/27 06:36:10;;;;;;;9.93;1.70;;;20.00;76.90;;;;;;5057497;28;20013;-73
2023/06/27 06:38:36;;;;;;;7.50;2.30;;;20.00;76.10;;;;;;5058323;28;20029;-75
2023/06/27 06:41:02;;;;;;;4.30;1.85;;;20.00;75.70;;;;;;5061452;28;20084;-74
2023/06/27 06:43:28;;;;;;;5.78;1.98;;;20.10;76.30;;;;;;5057306;28;20021;-75
2023/06/27 06:45:54;;;;;;;14.05;2.25;;;20.10;75.80;;;;;;5061715;28;20497;-75
2023/06/27 06:48:20;;;;;;;6.70;2.10;;;20.20;75.50;;;;;;5060984;28;20082;-75
2023/06/27 06:50:46;;;;;;;5.43;1.83;;;20.20;75.40;;;;;;5061500;28;20021;-74
2023/06/27 06:53:12;;;;;;;5.22;2.38;;;20.20;74.90;;;;;;5057168;28;20543;-75
2023/06/27 06:55:38;;;;;;;7.15;1.80;;;20.10;75.50;;;;;;5057138;28;20113;-75
2023/06/27 06:58:04;;;;;;;5.38;1.88;;;20.10;75.80;;;;;;5052019;28;20033;-75
2023/06/27 07:00:30;;;;;;;7.47;1.67;;;20.20;76.40;;;;;;5053998;28;20029;-75
2023/06/27 07:02:56;;;;;;;5.65;1.98;;;20.20;76.10;;;;;;5054685;28;20036;-75
2023/06/27 07:05:22;;;;;;;9.23;2.53;;;20.30;75.90;;;;;;5051258;28;20021;-76
2023/06/27 07:07:47;;;;;;;7.10;1.67;;;20.30;75.70;;;;;;5055500;28;20058;-74
2023/06/27 07:10:13;;;;;;;4.57;1.60;;;20.30;75.60;;;;;;5053685;28;20396;-74
2023/06/27 07:12:40;;;;;;;4.40;1.58;;;20.30;74.90;;;;;;5051255;28;20113;-77
2023/06/27 07:15:06;;;;;;;16.30;2.40;;;20.40;75.10;;;;;;5048280;28;20021;-74
2023/06/27 07:17:32;;;;;;;6.80;2.08;;;20.50;74.90;;;;;;5053139;28;20074;-74
2023/06/27 07:19:58;;;;;;;3.78;2.15;;;20.50;74.60;;;;;;5050240;28;20033;-74
2023/06/27 07:22:24;;;;;;;4.63;1.48;;;20.50;74.30;;;;;;5049869;28;20028;-76
2023/06/27 07:24:50;;;;;;;6.35;2.00;;;20.60;74.40;;;;;;5051338;28;20107;-74
2023/06/27 07:27:15;;;;;;;5.15;2.03;;;20.70;74.30;;;;;;5053751;28;20077;-74
2023/06/27 07:29:41;;;;;;;7.05;2.00;;;20.80;73.90;;;;;;5051047;28;20021;-74
2023/06/27 07:32:09;;;;;;;6.00;2.05;;;20.90;73.20;;;;;;5050182;28;20025;-74
2023/06/27 07:34:35;;;;;;;6.03;2.28;;;20.80;72.90;;;;;;5051493;28;20040;-74
2023/06/27 07:37:00;;;;;;;3.25;1.83;;;20.80;72.80;;;;;;5051903;28;20040;-74
2023/06/27 07:39:26;;;;;;;5.55;1.85;;;20.80;72.70;;;;;;5047505;28;20052;-74
2023/06/27 07:41:52;;;;;;;5.85;2.17;;;20.80;72.50;;;;;;5046947;28;20081;-73
2023/06/27 07:44:17;;;;;;;8.13;2.38;;;20.70;72.70;;;;;;5048448;28;20029;-75
2023/06/27 07:46:43;;;;;;;6.30;1.77;;;20.80;72.70;;;;;;5043491;28;20082;-75
2023/06/27 07:49:09;;;;;;;4.90;1.98;;;20.80;73.40;;;;;;5063578;28;20388;-77
2023/06/27 07:51:34;;;;;;;3.20;1.63;;;20.80;72.40;;;;;;5056558;28;20049;-77
2023/06/27 07:54:02;;;;;;;6.63;1.95;;;20.80;72.10;;;;;;5058928;28;20029;-78
2023/06/27 07:56:28;;;;;;;5.55;2.05;;;20.80;71.90;;;;;;5057629;28;20048;-75
2023/06/27 07:58:54;;;;;;;5.25;1.80;;;20.90;71.60;;;;;;5057919;28;20078;-74
2023/06/27 08:01:20;;;;;;;5.53;1.70;;;20.80;70.80;;;;;;5044023;28;20052;-76
2023/06/27 08:03:45;;;;;;;4.40;1.70;;;20.90;71.10;;;;;;5043952;28;20040;-75
2023/06/27 08:06:11;;;;;;;5.45;2.28;;;20.80;71.50;;;;;;5039762;28;20051;-75
2023/06/27 08:08:37;;;;;;;5.40;1.90;;;20.80;71.60;;;;;;5037124;28;20033;-75
2023/06/27 08:11:03;;;;;;;6.25;2.08;;;20.90;71.70;;;;;;5040902;28;20099;-75
2023/06/27 08:13:29;;;;;;;6.47;1.77;;;20.90;71.30;;;;;;5043024;28;20104;-75
2023/06/27 08:15:55;;;;;;;4.40;1.88;;;20.90;71.10;;;;;;5039995;28;20128;-75
2023/06/27 08:18:21;;;;;;;6.43;2.08;;;20.90;71.20;;;;;;5044164;28;20426;-75
2023/06/27 08:20:46;;;;;;;8.40;2.72;;;20.90;71.70;;;;;;5046478;28;20595;-75
2023/06/27 08:23:12;;;;;;;7.63;1.92;;;21.00;71.60;;;;;;5040355;28;20025;-75
2023/06/27 08:25:38;;;;;;;2.53;1.33;;;21.10;70.50;;;;;;5040168;28;20438;-75
2023/06/27 08:28:03;;;;;;;4.18;1.70;;;21.20;70.10;;;;;;5039892;28;20021;-76
2023/06/27 08:30:29;;;;;;;3.00;2.00;;;21.30;69.90;;;;;;5044979;28;20024;-76
2023/06/27 08:32:56;;;;;;;3.83;2.00;;;21.40;70.00;;;;;;5040356;28;20083;-75
2023/06/27 08:35:21;;;;;;;3.15;1.65;;;21.40;70.00;;;;;;5037290;28;20024;-75
2023/06/27 08:37:47;;;;;;;9.48;2.22;;;21.40;70.10;;;;;;5039487;28;20028;-75
2023/06/27 08:40:20;;;;;;;7.05;2.35;;;21.50;69.30;;;;;;5040722;28;20053;-75
2023/06/27 08:42:46;;;;;;;3.00;1.80;;;21.60;69.00;;;;;;5038797;28;20024;-75
2023/06/27 08:45:13;;;;;;;7.07;2.10;;;21.70;69.10;;;;;;5040160;28;20402;-75
2023/06/27 08:47:41;;;;;;;5.10;2.00;;;21.70;68.70;;;;;;5041984;28;20054;-75
2023/06/27 08:50:11;;;;;;;9.90;1.90;;;21.80;68.80;;;;;;5041236;28;20029;-76
2023/06/27 08:52:42;;;;;;;7.90;1.90;;;21.80;68.40;;;;;;5042706;28;20016;-76
2023/06/27 08:55:13;;;;;;;3.65;1.80;;;21.70;68.10;;;;;;5040946;28;20025;-75
2023/06/27 08:57:40;;;;;;;6.32;1.95;;;21.60;68.50;;;;;;5045347;28;20021;-75
2023/06/27 09:00:12;;;;;;;3.97;2.00;;;21.70;68.80;;;;;;5038424;28;20025;-76
2023/06/27 09:02:39;;;;;;;4.35;1.63;;;21.80;69.10;;;;;;5045912;28;20021;-76
2023/06/27 09:05:06;;;;;;;4.03;1.83;;;21.80;68.80;;;;;;5035892;28;20079;-75
2023/06/27 09:07:33;;;;;;;8.13;2.22;;;21.90;68.20;;;;;;5044298;28;20028;-76
2023/06/27 09:09:59;;;;;;;3.88;1.75;;;22.00;68.50;;;;;;5041853;28;20025;-75
2023/06/27 09:12:27;;;;;;;7.88;1.77;;;22.00;68.70;;;;;;5058804;28;20033;-76
2023/06/27 09:14:53;;;;;;;9.40;1.90;;;22.20;68.80;;;;;;5048233;28;20040;-76
2023/06/27 09:17:19;;;;;;;4.65;1.98;;;22.40;68.00;;;;;;5051911;28;20024;-76
2023/06/27 09:19:45;;;;;;;4.55;1.73;;;22.60;67.30;;;;;;5041910;28;20115;-75
2023/06/27 09:22:10;;;;;;;6.32;2.10;;;22.80;67.50;;;;;;5040395;28;20507;-76
2023/06/27 09:24:40;;;;;;;6.88;2.00;;;23.00;66.30;;;;;;5040901;28;20024;-75
2023/06/27 09:27:27;;;;;;;7.05;2.10;;;23.00;65.40;;;;;;5047994;28;20016;-74
2023/06/27 09:29:53;;;;;;;5.03;1.90;;;23.10;65.20;;;;;;5043698;28;20086;-73
2023/06/27 09:32:19;;;;;;;6.18;2.20;;;23.20;66.10;;;;;;5048056;28;20043;-73
2023/06/27 09:34:44;;;;;;;4.93;1.85;;;23.30;65.90;;;;;;5046523;28;20025;-74
2023/06/27 09:37:13;;;;;;;6.72;1.98;;;23.40;64.90;;;;;;5048249;28;20068;-75
2023/06/27 09:39:38;;;;;;;9.25;2.30;;;23.40;64.30;;;;;;5046523;28;20142;-74
2023/06/27 09:42:04;;;;;;;5.43;1.73;;;23.40;64.10;;;;;;5042173;28;20119;-75
2023/06/27 09:44:30;;;;;;;6.32;2.28;;;23.40;64.00;;;;;;5054138;28;20052;-74
2023/06/27 09:46:56;;;;;;;6.50;2.35;;;23.40;63.90;;;;;;5043985;28;20032;-75
2023/06/27 09:49:24;;;;;;;4.25;1.70;;;23.40;62.20;;;;;;5050678;28;20027;-75
2023/06/27 09:51:50;;;;;;;9.45;2.25;;;23.30;62.20;;;;;;5047473;28;20025;-75
2023/06/27 09:54:25;;;;;;;3.67;2.10;;;23.20;62.40;;;;;;5041733;28;20029;-74
2023/06/27 09:56:52;;;;;;;4.72;1.83;;;23.10;63.00;;;;;;5045719;28;20033;-75
2023/06/27 09:59:20;;;;;;;5.40;2.10;;;23.00;63.10;;;;;;5044499;28;20032;-75
2023/06/27 10:01:47;;;;;;;4.50;1.70;;;23.00;63.30;;;;;;5045196;28;20420;-75
2023/06/27 10:04:13;;;;;;;5.55;2.28;;;23.00;63.60;;;;;;5046699;28;20029;-76
2023/06/27 10:06:39;;;;;;;5.55;1.55;;;23.00;63.70;;;;;;5045213;28;20132;-75
2023/06/27 10:09:05;;;;;;;5.07;2.08;;;22.90;63.90;;;;;;5075030;28;20086;-75
2023/06/27 10:11:31;;;;;;;6.32;2.28;;;22.70;64.10;;;;;;5057199;28;20024;-76
2023/06/27 10:13:57;;;;;;;3.90;1.70;;;22.70;64.30;;;;;;5041410;28;20040;-78
2023/06/27 10:16:22;;;;;;;5.45;2.30;;;22.70;64.20;;;;;;5047621;28;20025;-76
2023/06/27 10:18:48;;;;;;;6.47;2.50;;;22.70;64.30;;;;;;5047204;28;20028;-76
2023/06/27 10:21:16;;;;;;;3.38;1.98;;;22.80;64.50;;;;;;5053057;28;20021;-76
2023/06/27 10:23:46;;;;;;;6.60;2.20;;;22.90;64.50;;;;;;5044146;28;20059;-76
2023/06/27 10:26:12;;;;;;;3.58;1.92;;;23.10;64.30;;;;;;5051764;28;20073;-76
2023/06/27 10:28:38;;;;;;;7.32;2.05;;;23.10;63.30;;;;;;5047839;28;20021;-76
2023/06/27 10:31:06;;;;;;;5.07;1.83;;;23.20;63.70;;;;;;5043575;28;20021;-76
2023/06/27 10:33:33;;;;;;;3.20;1.63;;;23.30;63.30;;;;;;5046533;28;20059;-77
2023/06/27 10:36:01;;;;;;;4.85;2.25;;;23.40;63.40;;;;;;5040550;28;20048;-77
2023/06/27 10:38:47;;;;;;;6.05;1.85;;;23.40;63.10;;;;;;5048796;28;20033;-77
2023/06/27 10:41:33;;;;;;;5.32;2.13;;;23.50;62.30;;;;;;5039736;28;20447;-76
2023/06/27 10:44:09;;;;;;;4.63;1.73;;;23.50;62.60;;;;;;5043141;28;20024;-76
2023/06/27 10:46:35;;;;;;;3.75;2.15;;;23.50;61.60;;;;;;5043447;28;20021;-75
2023/06/27 10:49:06;;;;;;;5.43;1.90;;;23.50;61.80;;;;;;5042412;28;20495;-75
2023/06/27 10:51:43;;;;;;;3.95;2.50;;;23.40;62.00;;;;;;5043880;28;20556;-76
2023/06/27 10:54:09;;;;;;;3.70;2.00;;;23.50;61.80;;;;;;5048625;28;20431;-76
2023/06/27 10:56:37;;;;;;;4.93;2.10;;;23.50;61.70;;;;;;5045819;28;20072;-77
2023/06/27 10:59:04;;;;;;;6.90;2.53;;;23.40;61.70;;;;;;5052299;28;20506;-77
2023/06/27 11:01:31;;;;;;;4.15;1.85;;;23.30;61.60;;;;;;5047273;28;20487;-76
2023/06/27 11:03:57;;;;;;;5.63;2.45;;;23.20;62.00;;;;;;5050082;28;23890;-75
2023/06/27 11:06:42;;;;;;;3.75;1.90;;;23.20;62.00;;;;;;5045342;28;20029;-75
2023/06/27 11:09:16;;;;;;;5.30;1.88;;;23.20;62.10;;;;;;5051778;28;20024;-76
2023/06/27 11:11:53;;;;;;;2.67;1.67;;;23.10;62.10;;;;;;5050746;28;20040;-76
2023/06/27 11:14:37;;;;;;;4.68;1.88;;;23.10;62.40;;;;;;5048767;28;20017;-77
2023/06/27 11:17:03;;;;;;;;;;;23.10;62.60;;;;;;5041163;28;20060;-76
2023/06/27 11:19:31;;;;;;;8.60;2.20;;;23.20;62.50;;;;;;5045641;28;19997;-74
2023/06/27 11:21:57;;;;;;;3.88;1.80;;;23.20;62.90;;;;;;5051176;28;20013;-75
2023/06/27 11:24:24;;;;;;;2.53;1.88;;;23.20;62.50;;;;;;5052823;28;20484;-77
2023/06/27 11:26:51;;;;;;;3.10;1.77;;;23.10;62.90;;;;;;5048632;28;20028;-77
2023/06/27 11:29:17;;;;;;;4.97;2.10;;;23.10;63.50;;;;;;5062830;28;20075;-76
2023/06/27 11:31:43;;;;;;;5.57;1.92;;;23.20;63.40;;;;;;5050051;28;20037;-76
2023/06/27 11:34:09;;;;;;;7.10;1.90;;;23.20;63.20;;;;;;5050667;28;20430;-76
2023/06/27 11:36:41;;;;;;;3.22;1.80;;;23.40;63.20;;;;;;5049930;28;20044;-75
2023/06/27 11:39:10;;;;;;;7.22;1.98;;;23.50;63.30;;;;;;5049991;28;20039;-75
2023/06/27 11:41:39;;;;;;;5.47;1.65;;;23.60;62.90;;;;;;5046954;28;20033;-76
2023/06/27 11:44:09;;;;;;;4.45;1.90;;;23.60;62.70;;;;;;5046812;28;20027;-76
2023/06/27 11:46:51;;;;;;;3.90;2.17;;;23.70;62.50;;;;;;5045405;28;20147;-75
2023/06/27 11:49:23;;;;;;;4.55;1.85;;;23.70;62.50;;;;;;5049990;28;20053;-76
2023/06/27 11:51:51;;;;;;;4.20;1.77;;;23.70;62.20;;;;;;5046925;28;20021;-76
2023/06/27 11:54:18;;;;;;;5.10;1.55;;;23.80;62.30;;;;;;5041519;28;20041;-75
2023/06/27 11:56:44;;;;;;;6.43;2.42;;;23.80;62.20;;;;;;5046266;28;20053;-75
2023/06/27 11:59:09;;;;;;;5.95;2.08;;;23.90;62.20;;;;;;5044653;28;20056;-75
2023/06/27 12:01:43;;;;;;;11.38;2.58;;;23.90;61.60;;;;;;5044973;28;20052;-75
2023/06/27 12:04:17;;;;;;;6.25;2.17;;;23.90;61.70;;;;;;5048530;28;20124;-75
2023/06/27 12:06:43;;;;;;;4.82;1.67;;;23.90;61.40;;;;;;5044397;28;20075;-75
2023/06/27 12:09:19;;;;;;;2.88;1.63;;;24.10;61.50;;;;;;5040590;28;20048;-75
2023/06/27 12:11:51;;;;;;;4.50;1.77;;;24.10;61.30;;;;;;5046225;28;20033;-75
2023/06/27 12:14:23;;;;;;;4.68;2.00;;;24.20;61.40;;;;;;5049590;28;20027;-75
2023/06/27 12:16:49;;;;;;;6.70;1.60;;;24.20;60.60;;;;;;5048175;28;20033;-75
2023/06/27 12:19:18;;;;;;;3.65;2.00;;;24.20;59.60;;;;;;5039061;28;20110;-76
2023/06/27 12:21:44;;;;;;;5.43;2.00;;;24.10;59.80;;;;;;5042245;28;20037;-75
2023/06/27 12:24:10;;;;;;;4.22;1.83;;;24.00;60.10;;;;;;5044222;28;20104;-76
2023/06/27 12:26:35;;;;;;;3.28;1.92;;;24.00;60.50;;;;;;5045619;28;20025;-76
2023/06/27 12:29:03;;;;;;;2.28;1.63;;;23.90;60.30;;;;;;5043178;28;20483;-76
2023/06/27 12:31:29;;;;;;;5.13;2.03;;;23.90;60.50;;;;;;5045085;28;20040;-76
2023/06/27 12:33:55;;;;;;;3.28;1.80;;;23.90;60.80;;;;;;5044969;28;20048;-76
2023/06/27 12:36:23;;;;;;;5.13;2.25;;;23.90;60.60;;;;;;5043442;28;20029;-77
2023/06/27 12:38:49;;;;;;;4.95;1.75;;;23.90;60.90;;;;;;5046815;28;20082;-76
2023/06/27 12:41:18;;;;;;;4.63;2.08;;;24.00;60.60;;;;;;5043237;28;20036;-75
2023/06/27 12:43:46;;;;;;;4.10;1.70;;;24.00;60.90;;;;;;5041507;28;20025;-75
2023/06/27 12:46:13;;;;;;;7.00;2.05;;;24.10;61.40;;;;;;5044154;28;20025;-76
2023/06/27 12:48:39;;;;;;;4.43;2.03;;;24.00;61.70;;;;;;5042838;28;20067;-76